Haima, Oman
Current Conditions -  °F | °C
As of 11:55 AM on Friday 24 Oct 2014 (Local Time) from KQTH Reporting Station
Clear Clear  
Wind Chill: 91°   Ceiling: Unl
Heat Index: 91°   Visibility: 6mi
Dew Point: 45°   Wind: 13mph
Humidity: 21%   Direction: 50°NE
Pressure: 30.02"   Gusts: 20mph
Location:  19.97°N, 56.28°E
Report Text: KQTH 240755Z 05011G17KT 9999 CLR 33/07 A3002 RMK AO2A SLP139 T03250072
Loading
Personal Weather Stations






























Interactive Weather Map
Tropical Storm Tracking
New forecast layout! Learn more

10-Day Weather Forecast

Advertisements
Track Severe Weather on mobile